Terminal Aerodrome Forecast
Issued by NWS Portland, OR

Home | Current Version | Previous Version | Text Only | Print | Product List | Glossary On
Versions: 1 2 3 4 5 6 7 8 9 10 11 12 13 14 15 16 17 18 19 20 21 22 23 24 25 26 27 28 29 30 31 32 33 34 35
000
FTUS46 KPQR 230542
TAFHIO
TAF
KHIO 230542Z 2306/2406 13008KT P6SM SCT015 BKN050
     FM230800 16003KT P6SM OVC040
     FM231300 18006KT 4SM -RA BR OVC025
     FM232000 22011KT P6SM -SHRA BKN025 BKN040=

USA.gov is the U.S. government's official web portal to all federal, state and local government web resources and services.